sensor_id;sensor_type;location;lat;lon;timestamp;pressure;altitude;pressure_sealevel;temperature;humidity
66681;BME280;73718;51.366;12.350;2024-03-08T21:07:22;100005.19;;;3.21;100.00
66681;BME280;73718;51.366;12.350;2024-03-08T21:09:48;100002.63;;;3.22;100.00
66681;BME280;73718;51.366;12.350;2024-03-08T21:12:15;100002.59;;;3.21;100.00
66681;BME280;73718;51.366;12.350;2024-03-08T21:14:43;99997.31;;;3.14;100.00
66681;BME280;73718;51.366;12.350;2024-03-08T21:17:09;99991.34;;;3.17;100.00
66681;BME280;73718;51.366;12.350;2024-03-08T21:19:35;99993.94;;;3.17;100.00
66681;BME280;73718;51.366;12.350;2024-03-08T21:22:00;99989.56;;;3.13;100.00
66681;BME280;73718;51.366;12.350;2024-03-08T21:24:26;99988.63;;;3.09;100.00
66681;BME280;73718;51.366;12.350;2024-03-08T21:26:51;99985.06;;;3.04;100.00
66681;BME280;73718;51.366;12.350;2024-03-08T21:29:18;99984.19;;;3.04;100.00
66681;BME280;73718;51.366;12.350;2024-03-08T21:31:45;99977.41;;;3.09;100.00
66681;BME280;73718;51.366;12.350;2024-03-08T21:34:11;99968.72;;;3.04;100.00
66681;BME280;73718;51.366;12.350;2024-03-08T21:36:38;99963.47;;;3.01;100.00
66681;BME280;73718;51.366;12.350;2024-03-08T21:39:04;99975.59;;;3.03;100.00
66681;BME280;73718;51.366;12.350;2024-03-08T21:41:39;99959.16;;;2.98;100.00
66681;BME280;73718;51.366;12.350;2024-03-08T21:44:05;99972.06;;;2.98;100.00
66681;BME280;73718;51.366;12.350;2024-03-08T21:46:31;99969.38;;;2.93;100.00
66681;BME280;73718;51.366;12.350;2024-03-08T21:48:56;99965.00;;;2.89;100.00
66681;BME280;73718;51.366;12.350;2024-03-08T21:51:22;99960.63;;;2.85;100.00
66681;BME280;73718;51.366;12.350;2024-03-08T21:53:47;99949.41;;;2.83;100.00
66681;BME280;73718;51.366;12.350;2024-03-08T21:56:13;99938.94;;;2.76;100.00
66681;BME280;73718;51.366;12.350;2024-03-08T21:58:39;99950.16;;;2.78;100.00
66681;BME280;73718;51.366;12.350;2024-03-08T22:01:05;99950.13;;;2.76;100.00
66681;BME280;73718;51.366;12.350;2024-03-08T22:03:34;99948.34;;;2.74;100.00
66681;BME280;73718;51.366;12.350;2024-03-08T22:06:00;99943.16;;;2.72;100.00
66681;BME280;73718;51.366;12.350;2024-03-08T22:08:29;99947.47;;;2.72;100.00
66681;BME280;73718;51.366;12.350;2024-03-08T22:10:57;99937.88;;;2.66;100.00
66681;BME280;73718;51.366;12.350;2024-03-08T22:13:24;99936.16;;;2.65;100.00
66681;BME280;73718;51.366;12.350;2024-03-08T22:15:50;99940.41;;;2.63;100.00
66681;BME280;73718;51.366;12.350;2024-03-08T22:18:16;99929.13;;;2.58;100.00
66681;BME280;73718;51.366;12.350;2024-03-08T22:20:42;99930.84;;;2.59;100.00
66681;BME280;73718;51.366;12.350;2024-03-08T22:23:10;99931.63;;;2.55;100.00
66681;BME280;73718;51.366;12.350;2024-03-08T22:25:37;99933.28;;;2.51;100.00
66681;BME280;73718;51.366;12.350;2024-03-08T22:28:02;99926.31;;;2.46;100.00
66681;BME280;73718;51.366;12.350;2024-03-08T22:30:29;99934.94;;;2.48;100.00
66681;BME280;73718;51.366;12.350;2024-03-08T22:32:56;99931.47;;;2.46;100.00
66681;BME280;73718;51.366;12.350;2024-03-08T22:35:22;99922.78;;;2.40;100.00
66681;BME280;73718;51.366;12.350;2024-03-08T22:37:49;99924.50;;;2.41;100.00
66681;BME280;73718;51.366;12.350;2024-03-08T22:40:14;99916.78;;;2.41;100.00
66681;BME280;73718;51.366;12.350;2024-03-08T22:42:44;99924.44;;;2.38;100.00
66681;BME280;73718;51.366;12.350;2024-03-08T22:45:11;99927.88;;;2.37;100.00
66681;BME280;73718;51.366;12.350;2024-03-08T22:47:39;99915.78;;;2.35;100.00
66681;BME280;73718;51.366;12.350;2024-03-08T22:50:09;99914.84;;;2.31;100.00
66681;BME280;73718;51.366;12.350;2024-03-08T22:52:37;99910.47;;;2.29;100.00
66681;BME280;73718;51.366;12.350;2024-03-08T22:55:05;99909.66;;;2.30;100.00
66681;BME280;73718;51.366;12.350;2024-03-08T22:57:34;99907.00;;;2.27;100.00
66681;BME280;73718;51.366;12.350;2024-03-08T23:00:00;99902.63;;;2.23;100.00
66681;BME280;73718;51.366;12.350;2024-03-08T23:02:25;99906.06;;;2.23;100.00
66681;BME280;73718;51.366;12.350;2024-03-08T23:04:52;99901.69;;;2.19;100.00
66681;BME280;73718;51.366;12.350;2024-03-08T23:07:17;99896.50;;;2.17;100.00
66681;BME280;73718;51.366;12.350;2024-03-08T23:09:44;99901.63;;;2.16;100.00
66681;BME280;73718;51.366;12.350;2024-03-08T23:12:10;99896.41;;;2.13;100.00
66681;BME280;73718;51.366;12.350;2024-03-08T23:14:37;99891.19;;;2.10;100.00
66681;BME280;73718;51.366;12.350;2024-03-08T23:17:03;99891.09;;;2.05;100.00
66681;BME280;73718;51.366;12.350;2024-03-08T23:19:32;99886.75;;;2.03;100.00
66681;BME280;73718;51.366;12.350;2024-03-08T23:21:59;99894.44;;;2.01;100.00
66681;BME280;73718;51.366;12.350;2024-03-08T23:24:26;99887.47;;;1.97;100.00
66681;BME280;73718;51.366;12.350;2024-03-08T23:26:52;99893.44;;;1.94;100.00
66681;BME280;73718;51.366;12.350;2024-03-08T23:29:18;99882.16;;;1.89;100.00
66681;BME280;73718;51.366;12.350;2024-03-08T23:31:43;99888.25;;;1.93;100.00
66681;BME280;73718;51.366;12.350;2024-03-08T23:34:10;99889.94;;;1.91;100.00
66681;BME280;73718;51.366;12.350;2024-03-08T23:36:36;99895.09;;;1.91;100.00
66681;BME280;73718;51.366;12.350;2024-03-08T23:39:01;99889.00;;;1.87;100.00
66681;BME280;73718;51.366;12.350;2024-03-08T23:41:27;99888.09;;;1.85;100.00
66681;BME280;73718;51.366;12.350;2024-03-08T23:43:54;99887.16;;;1.82;100.00
66681;BME280;73718;51.366;12.350;2024-03-08T23:46:19;99884.47;;;1.77;100.00
66681;BME280;73718;51.366;12.350;2024-03-08T23:48:49;99882.75;;;1.78;100.00
66681;BME280;73718;51.366;12.350;2024-03-08T23:51:15;99881.81;;;1.74;100.00
66681;BME280;73718;51.366;12.350;2024-03-08T23:53:41;99875.72;;;1.69;100.00
66681;BME280;73718;51.366;12.350;2024-03-08T23:56:07;99873.97;;;1.68;100.00
66681;BME280;73718;51.366;12.350;2024-03-08T23:58:33;99870.50;;;1.67;100.00
